< < Back
Terminal Aerodrome Forecast


Current Version              Previous Versions:   1  2  3  4  5  6  7  8  9  

Terminal Aerodrome Forecast

916
FTUS42 KGSP 051130
TAFHKY
TAF
KHKY 051130Z 0512/0612 34008KT P6SM SKC
     FM051400 34010G18KT P6SM SKC
     FM052300 34003KT P6SM BKN250=



Latest METAR

109
SAUS70 KWBC 060300 RRE
MTRHKY
METAR KHKY 060253Z AUTO 00000KT 10SM CLR 01/M11 A3038 RMK AO2 SLP284
T00111111 51014


USA.gov is the U.S. government's official web portal to all federal, state and local government web resources and services.